Time;durP1;ratioP1;P1;durP2;ratioP2;P2;SDS_P1;SDS_P2;PMS_P1;PMS_P2;Temp;Humidity;BMP_temperature;BMP_pressure;BME280_temperature;BME280_humidity;BME280_pressure;Samples;Min_cycle;Max_cycle;Signal;HPM_P1;HPM_P2
2023/02/22 00:00:28;;;;;;;34.90;19.00;;;8.60;99.90;;;;;;5072475;28;20021;-81
2023/02/22 00:02:59;;;;;;;35.43;19.63;;;8.60;99.90;;;;;;5073449;28;20473;-81
2023/02/22 00:05:27;;;;;;;33.07;19.30;;;8.60;99.90;;;;;;5056189;28;20496;-81
2023/02/22 00:07:57;;;;;;;33.90;18.67;;;8.60;99.90;;;;;;5071343;28;20043;-81
2023/02/22 00:10:23;;;;;;;36.23;19.70;;;8.60;99.90;;;;;;5088658;28;20033;-81
2023/02/22 00:12:51;;;;;;;33.93;19.13;;;8.50;99.90;;;;;;5072237;28;20052;-81
2023/02/22 00:15:26;;;;;;;36.00;20.90;;;8.60;99.90;;;;;;5072895;28;20021;-81
2023/02/22 00:17:53;;;;;;;31.10;17.50;;;8.60;99.90;;;;;;5071607;28;20025;-80
2023/02/22 00:20:19;;;;;;;36.17;19.77;;;8.50;99.90;;;;;;5071875;28;20493;-80
2023/02/22 00:22:46;;;;;;;35.43;19.67;;;8.50;99.90;;;;;;5071877;28;20108;-80
2023/02/22 00:25:16;;;;;;;36.70;20.60;;;8.50;99.90;;;;;;5071934;28;20027;-80
2023/02/22 00:27:44;;;;;;;34.80;19.60;;;8.50;99.90;;;;;;5071828;28;20085;-80
2023/02/22 00:30:17;;;;;;;37.03;19.33;;;8.50;99.90;;;;;;5071878;28;20021;-81
2023/02/22 00:32:44;;;;;;;34.08;19.73;;;8.50;99.90;;;;;;5071690;28;20028;-80
2023/02/22 00:35:09;;;;;;;35.80;19.37;;;8.50;99.90;;;;;;5071686;28;20135;-81
2023/02/22 00:37:35;;;;;;;35.10;19.93;;;8.50;99.90;;;;;;5072570;28;20104;-82
2023/02/22 00:40:01;;;;;;;33.43;19.70;;;8.50;99.90;;;;;;5071449;28;20028;-81
2023/02/22 00:42:26;;;;;;;33.87;18.57;;;8.50;99.90;;;;;;5071737;28;20461;-81
2023/02/22 00:44:52;;;;;;;34.30;19.63;;;8.50;99.90;;;;;;5055254;28;20150;-81
2023/02/22 00:47:18;;;;;;;35.30;19.37;;;8.50;99.90;;;;;;5088294;28;20031;-82
2023/02/22 00:49:43;;;;;;;37.43;20.83;;;8.50;99.90;;;;;;5071771;28;20120;-82
2023/02/22 00:52:09;;;;;;;38.20;21.20;;;8.50;99.90;;;;;;5088519;28;20068;-82
2023/02/22 00:54:35;;;;;;;41.33;21.90;;;8.40;99.90;;;;;;5073093;28;20106;-82
2023/02/22 00:57:02;;;;;;;38.83;21.90;;;8.40;99.90;;;;;;5071434;28;20020;-82
2023/02/22 00:59:29;;;;;;;39.33;21.57;;;8.50;99.90;;;;;;5072858;28;20020;-81
2023/02/22 01:01:55;;;;;;;41.13;23.30;;;8.50;99.90;;;;;;5071726;28;20033;-82
2023/02/22 01:04:21;;;;;;;41.67;23.17;;;8.40;99.90;;;;;;5072753;28;20055;-81
2023/02/22 01:06:46;;;;;;;41.37;22.07;;;8.40;99.90;;;;;;5072686;28;20043;-81
2023/02/22 01:09:12;;;;;;;43.80;23.07;;;8.40;99.90;;;;;;5071217;28;20522;-81
2023/02/22 01:11:38;;;;;;;44.43;24.60;;;8.40;99.90;;;;;;5088265;28;20044;-80
2023/02/22 01:14:03;;;;;;;45.80;23.43;;;8.40;99.90;;;;;;5071752;28;20473;-81
2023/02/22 01:16:29;;;;;;;41.70;22.47;;;8.30;99.90;;;;;;5071210;28;20028;-81
2023/02/22 01:18:55;;;;;;;43.87;23.33;;;8.30;99.90;;;;;;5054854;28;20064;-81
2023/02/22 01:21:21;;;;;;;44.73;24.30;;;8.30;99.90;;;;;;5071391;28;20052;-82
2023/02/22 01:23:46;;;;;;;42.73;23.17;;;8.30;99.90;;;;;;5088242;28;20039;-81
2023/02/22 01:26:12;;;;;;;43.87;23.43;;;8.30;99.90;;;;;;5071523;28;20033;-81
2023/02/22 01:28:38;;;;;;;43.37;22.63;;;8.30;99.90;;;;;;5071393;28;20048;-82
2023/02/22 01:31:05;;;;;;;41.90;22.73;;;8.30;99.90;;;;;;5074472;28;20025;-82
2023/02/22 01:33:31;;;;;;;41.10;22.50;;;8.30;99.90;;;;;;5074982;28;20693;-81
2023/02/22 01:35:56;;;;;;;44.13;23.20;;;8.30;99.90;;;;;;5091764;28;20072;-80
2023/02/22 01:38:22;;;;;;;43.07;23.37;;;8.30;99.90;;;;;;5075995;28;20056;-81
2023/02/22 01:40:49;;;;;;;42.17;23.40;;;8.30;99.90;;;;;;5091653;28;20077;-81
2023/02/22 01:43:20;;;;;;;42.60;23.27;;;8.20;99.90;;;;;;5076025;28;20024;-81
2023/02/22 01:45:55;;;;;;;45.07;24.70;;;8.20;99.90;;;;;;5074750;28;20119;-81
2023/02/22 01:48:39;;;;;;;46.40;25.10;;;8.20;99.90;;;;;;5075029;28;20040;-81
2023/02/22 01:51:30;;;;;;;45.53;23.40;;;8.10;99.90;;;;;;5074183;28;20528;-81
2023/02/22 01:54:14;;;;;;;44.77;22.63;;;8.10;99.90;;;;;;5076089;28;20273;-81
2023/02/22 01:56:46;;;;;;;47.15;23.63;;;8.10;99.90;;;;;;5076225;28;20105;-81
2023/02/22 01:59:12;;;;;;;49.23;24.40;;;8.10;99.90;;;;;;5074675;28;20025;-81
2023/02/22 02:01:41;;;;;;;46.10;23.70;;;8.10;99.90;;;;;;5091237;28;20051;-81
2023/02/22 02:04:14;;;;;;;45.83;23.33;;;8.10;99.90;;;;;;5075802;28;20028;-81
2023/02/22 02:06:41;;;;;;;40.03;21.50;;;8.00;99.90;;;;;;5074517;28;20020;-81
2023/02/22 02:09:23;;;;;;;40.40;21.60;;;8.10;99.90;;;;;;5074115;28;20051;-82
2023/02/22 02:11:48;;;;;;;41.93;22.10;;;8.10;99.90;;;;;;5074342;28;20162;-82
2023/02/22 02:14:14;;;;;;;41.80;21.37;;;8.00;99.90;;;;;;5074174;28;20499;-80
2023/02/22 02:16:52;;;;;;;45.67;22.83;;;8.00;99.90;;;;;;5090919;28;20584;-80
2023/02/22 02:19:59;;;;;;;42.70;22.10;;;8.10;99.90;;;;;;5073968;28;20029;-80
2023/02/22 02:22:43;;;;;;;42.60;20.80;;;8.10;99.90;;;;;;5045620;28;20051;-80
2023/02/22 02:25:36;;;;;;;32.47;16.65;;;8.00;99.90;;;;;;5074059;28;20144;-80
2023/02/22 02:28:22;;;;;;;40.57;21.37;;;8.00;99.90;;;;;;5073754;28;20123;-81
2023/02/22 02:31:10;;;;;;;41.07;21.43;;;8.00;99.90;;;;;;5075358;28;20027;-80
2023/02/22 02:33:36;;;;;;;37.23;18.80;;;7.90;99.90;;;;;;5075337;28;20484;-81
2023/02/22 02:36:06;;;;;;;44.63;22.50;;;7.90;99.90;;;;;;5074745;28;20048;-80
2023/02/22 02:38:38;;;;;;;44.43;21.73;;;7.90;99.90;;;;;;5073794;28;20021;-80
2023/02/22 02:41:20;;;;;;;44.47;22.30;;;7.90;99.90;;;;;;5072730;28;20031;-80
2023/02/22 02:44:03;;;;;;;43.73;21.33;;;7.90;99.90;;;;;;5075225;28;20028;-80
2023/02/22 02:46:34;;;;;;;41.10;20.83;;;7.80;99.90;;;;;;5073904;28;20116;-80
2023/02/22 02:49:11;;;;;;;43.03;21.07;;;7.80;99.90;;;;;;5074811;28;20036;-80
2023/02/22 02:51:40;;;;;;;45.00;22.13;;;7.80;99.90;;;;;;5073414;28;20115;-80
2023/02/22 02:54:08;;;;;;;47.10;21.23;;;7.70;99.90;;;;;;5073310;28;20020;-80
2023/02/22 02:56:34;;;;;;;40.43;20.07;;;7.70;99.90;;;;;;5090275;28;20024;-80
2023/02/22 02:58:59;;;;;;;42.50;20.13;;;7.70;99.90;;;;;;5074674;28;20492;-82
2023/02/22 03:01:34;;;;;;;41.23;20.57;;;7.80;99.90;;;;;;5073267;28;20036;-82
2023/02/22 03:04:25;;;;;;;44.67;21.27;;;7.80;99.90;;;;;;5073007;28;20119;-81
2023/02/22 03:07:17;;;;;;;41.80;20.93;;;7.80;99.90;;;;;;5070105;28;20025;-81
2023/02/22 03:10:02;;;;;;;47.10;22.37;;;7.80;99.90;;;;;;5070115;28;20036;-80
2023/02/22 03:12:30;;;;;;;;;;;7.80;99.90;;;;;;5073770;28;20461;-80
2023/02/22 03:15:17;;;;;;;41.00;21.07;;;7.70;99.90;;;;;;5073414;28;19904;-82
2023/02/22 03:18:09;;;;;;;42.80;21.23;;;7.70;99.90;;;;;;5073356;28;20017;-81
2023/02/22 03:20:53;;;;;;;41.67;19.60;;;7.70;99.90;;;;;;5071863;28;20027;-81
2023/02/22 03:23:19;;;;;;;47.97;21.57;;;7.70;99.90;;;;;;5061420;28;20070;-81
2023/02/22 03:25:54;;;;;;;42.50;20.23;;;7.70;99.90;;;;;;5054329;28;20029;-81
2023/02/22 03:28:25;;;;;;;44.87;22.10;;;7.70;99.90;;;;;;5069328;28;20507;-81
2023/02/22 03:31:12;;;;;;;49.73;22.83;;;7.70;99.90;;;;;;5069462;28;20024;-81
2023/02/22 03:33:45;;;;;;;50.57;23.47;;;7.70;99.90;;;;;;5054386;28;20025;-81
2023/02/22 03:36:31;;;;;;;47.77;22.93;;;7.70;99.90;;;;;;5052212;28;20049;-80
2023/02/22 03:38:59;;;;;;;46.10;22.03;;;7.60;99.90;;;;;;5069446;28;20107;-81
2023/02/22 03:41:27;;;;;;;48.67;23.27;;;7.60;99.90;;;;;;5069013;28;20016;-81
2023/02/22 03:44:15;;;;;;;48.37;22.83;;;7.60;99.90;;;;;;5052293;28;20029;-81
2023/02/22 03:46:42;;;;;;;49.37;23.53;;;7.60;99.90;;;;;;5052419;28;20487;-81
2023/02/22 03:49:13;;;;;;;52.77;25.80;;;7.70;99.90;;;;;;5052354;28;20397;-81
2023/02/22 03:51:40;;;;;;;49.37;24.90;;;7.60;99.90;;;;;;5053935;28;20577;-81
2023/02/22 03:54:06;;;;;;;51.97;24.07;;;7.60;99.90;;;;;;5053112;28;20049;-81
2023/02/22 03:56:37;;;;;;;47.70;22.50;;;7.60;99.90;;;;;;5052855;28;20060;-81
2023/02/22 03:59:06;;;;;;;47.73;23.57;;;7.60;99.90;;;;;;5053582;28;20021;-81
2023/02/22 04:01:32;;;;;;;49.30;23.50;;;7.60;99.90;;;;;;5068851;28;20039;-81
2023/02/22 04:03:59;;;;;;;49.63;23.53;;;7.60;99.90;;;;;;5035901;28;20037;-81
2023/02/22 04:06:25;;;;;;;46.77;23.30;;;7.60;99.90;;;;;;5035583;28;20025;-81
2023/02/22 04:08:50;;;;;;;52.87;24.30;;;7.60;99.90;;;;;;5068832;28;20037;-81
2023/02/22 04:11:16;;;;;;;50.93;24.40;;;7.60;99.90;;;;;;5035722;28;20025;-81
2023/02/22 04:13:42;;;;;;;56.03;25.77;;;7.60;99.90;;;;;;5068555;28;20021;-81
2023/02/22 04:16:07;;;;;;;45.30;22.87;;;7.60;99.90;;;;;;5052271;28;20021;-81
2023/02/22 04:18:33;;;;;;;50.43;24.23;;;7.60;99.90;;;;;;5051988;28;20389;-81
2023/02/22 04:20:58;;;;;;;46.90;23.70;;;7.60;99.90;;;;;;5068441;28;20028;-81
2023/02/22 04:23:25;;;;;;;51.33;24.80;;;7.50;99.90;;;;;;5052903;28;20116;-81
2023/02/22 04:25:51;;;;;;;48.60;23.30;;;7.60;99.90;;;;;;5035846;28;20459;-82
2023/02/22 04:28:17;;;;;;;49.17;23.17;;;7.50;99.90;;;;;;5051892;28;20132;-82
2023/02/22 04:30:44;;;;;;;53.67;25.43;;;7.50;99.90;;;;;;5068804;28;20036;-82
2023/02/22 04:33:10;;;;;;;48.53;23.37;;;7.50;99.90;;;;;;5052115;28;20461;-82
2023/02/22 04:35:36;;;;;;;48.83;23.80;;;7.50;99.90;;;;;;5068201;28;20127;-81
2023/02/22 04:38:03;;;;;;;51.47;24.53;;;7.50;99.90;;;;;;5051563;28;20021;-82
2023/02/22 04:40:29;;;;;;;55.13;24.37;;;7.50;99.90;;;;;;5051935;28;20025;-82
2023/02/22 04:42:54;;;;;;;52.93;26.07;;;7.50;99.90;;;;;;5051996;28;20059;-81
2023/02/22 04:45:20;;;;;;;58.03;26.83;;;7.50;99.90;;;;;;5051638;28;20036;-80
2023/02/22 04:47:46;;;;;;;51.40;23.93;;;7.50;99.90;;;;;;5051618;28;20041;-80
2023/02/22 04:50:13;;;;;;;57.80;25.60;;;7.40;99.90;;;;;;5068129;28;20063;-80
2023/02/22 04:52:39;;;;;;;59.20;28.27;;;7.40;99.90;;;;;;5051892;28;20087;-80
2023/02/22 04:55:05;;;;;;;57.40;26.83;;;7.40;99.90;;;;;;5051521;28;20021;-80
2023/02/22 04:57:30;;;;;;;56.30;27.47;;;7.40;99.90;;;;;;5035421;28;20025;-80
2023/02/22 04:59:56;;;;;;;58.83;28.50;;;7.40;99.90;;;;;;5051451;28;20017;-81
2023/02/22 05:02:22;;;;;;;60.00;27.03;;;7.40;99.90;;;;;;5068362;28;20017;-81
2023/02/22 05:04:48;;;;;;;62.03;28.87;;;7.30;99.90;;;;;;5052923;28;20381;-80
2023/02/22 05:07:14;;;;;;;60.57;26.80;;;7.30;99.90;;;;;;5072086;28;20102;-81
2023/02/22 05:09:39;;;;;;;59.67;27.20;;;7.30;99.90;;;;;;5039137;28;20037;-80
2023/02/22 05:12:05;;;;;;;61.17;29.90;;;7.30;99.90;;;;;;5055931;28;20025;-82
2023/02/22 05:14:31;;;;;;;61.07;28.10;;;7.20;99.90;;;;;;5056229;28;20424;-81
2023/02/22 05:16:57;;;;;;;60.67;29.00;;;7.20;99.90;;;;;;5072573;28;20377;-81
2023/02/22 05:19:23;;;;;;;64.77;30.37;;;7.20;99.90;;;;;;5072247;28;20029;-81
2023/02/22 05:21:49;;;;;;;68.93;30.73;;;7.20;99.90;;;;;;5055354;28;20044;-82
2023/02/22 05:24:15;;;;;;;61.93;29.97;;;7.10;99.90;;;;;;5073531;28;20024;-81
2023/02/22 05:26:42;;;;;;;65.70;30.20;;;7.10;99.90;;;;;;5062157;28;20464;-82
2023/02/22 05:29:08;;;;;;;62.83;29.43;;;7.00;99.90;;;;;;5074075;28;20036;-81
2023/02/22 05:31:34;;;;;;;72.33;32.23;;;7.00;99.90;;;;;;5074886;28;20031;-81
2023/02/22 05:33:59;;;;;;;75.07;32.33;;;7.00;99.90;;;;;;5067947;28;20036;-81
2023/02/22 05:36:26;;;;;;;74.23;32.47;;;7.00;99.90;;;;;;5037297;28;20053;-82
2023/02/22 05:38:52;;;;;;;65.73;29.97;;;7.00;99.90;;;;;;5069621;28;20029;-81
2023/02/22 05:41:18;;;;;;;75.73;31.97;;;7.00;99.90;;;;;;5054652;28;20056;-82
2023/02/22 05:43:44;;;;;;;69.60;30.50;;;7.00;99.90;;;;;;5038548;28;20049;-82
2023/02/22 05:46:10;;;;;;;68.10;30.40;;;6.90;99.90;;;;;;5038269;28;20429;-81
2023/02/22 05:48:35;;;;;;;72.07;32.00;;;6.90;99.90;;;;;;5054505;28;20377;-82
2023/02/22 05:51:02;;;;;;;76.13;32.80;;;6.90;99.90;;;;;;5039372;28;20062;-81
2023/02/22 05:53:28;;;;;;;73.57;33.40;;;6.90;99.90;;;;;;5052778;28;20029;-81
2023/02/22 05:55:54;;;;;;;68.97;33.30;;;6.90;99.90;;;;;;5052886;28;20025;-81
2023/02/22 05:58:19;;;;;;;77.27;33.07;;;6.90;99.90;;;;;;5054397;28;20033;-82
2023/02/22 06:00:45;;;;;;;74.27;32.07;;;6.90;99.90;;;;;;5038113;28;20022;-82
2023/02/22 06:03:11;;;;;;;73.90;32.80;;;6.90;99.90;;;;;;5054275;28;20021;-81
2023/02/22 06:05:37;;;;;;;79.57;33.17;;;6.90;99.90;;;;;;5036838;28;20036;-81
2023/02/22 06:08:05;;;;;;;74.43;33.50;;;6.80;99.90;;;;;;5037670;28;20037;-81
2023/02/22 06:10:31;;;;;;;82.53;33.17;;;6.90;99.90;;;;;;5054769;28;20040;-82
2023/02/22 06:12:57;;;;;;;86.00;35.23;;;6.90;99.90;;;;;;5054140;28;20025;-81
2023/02/22 06:15:24;;;;;;;79.73;31.90;;;6.90;99.90;;;;;;5053572;28;20029;-82
2023/02/22 06:17:51;;;;;;;84.33;33.07;;;6.90;99.90;;;;;;5054543;28;20032;-82
2023/02/22 06:20:19;;;;;;;84.93;32.37;;;6.90;99.90;;;;;;5054174;28;20120;-82
2023/02/22 06:22:53;;;;;;;85.03;33.10;;;6.80;99.90;;;;;;5053929;28;20029;-80
2023/02/22 06:25:22;;;;;;;94.10;33.97;;;6.80;99.90;;;;;;5054215;28;20432;-82
2023/02/22 06:27:48;;;;;;;82.47;34.23;;;6.80;99.90;;;;;;5054323;28;20096;-80
2023/02/22 06:30:16;;;;;;;91.50;33.40;;;6.80;99.90;;;;;;5054095;28;20056;-81
2023/02/22 06:32:42;;;;;;;82.57;32.93;;;6.80;99.90;;;;;;5073623;28;20025;-82
2023/02/22 06:35:08;;;;;;;82.23;33.93;;;6.80;99.90;;;;;;5065118;28;20040;-80
2023/02/22 06:37:34;;;;;;;82.47;32.30;;;6.80;99.90;;;;;;5091812;28;20111;-80
2023/02/22 06:39:59;;;;;;;95.13;34.60;;;6.80;99.90;;;;;;5095302;28;20444;-80
2023/02/22 06:42:25;;;;;;;100.97;32.13;;;6.80;99.90;;;;;;5093955;28;20032;-81
2023/02/22 06:44:50;;;;;;;93.43;33.13;;;6.80;99.90;;;;;;5069556;28;20366;-80
2023/02/22 06:47:16;;;;;;;85.87;32.87;;;6.80;99.90;;;;;;5084926;28;20055;-81
2023/02/22 06:49:41;;;;;;;79.50;31.70;;;6.80;99.90;;;;;;5095259;28;20051;-81
2023/02/22 06:52:08;;;;;;;100.07;33.67;;;6.80;99.90;;;;;;5076525;28;20197;-80
2023/02/22 06:54:35;;;;;;;77.53;31.87;;;6.80;99.90;;;;;;5073434;28;20465;-80
2023/02/22 06:57:00;;;;;;;73.13;29.60;;;6.80;99.90;;;;;;5069895;28;20120;-80
2023/02/22 06:59:26;;;;;;;65.07;28.63;;;6.90;99.90;;;;;;5066340;28;20127;-81
2023/02/22 07:01:53;;;;;;;69.17;29.03;;;6.80;99.90;;;;;;5082340;28;20484;-81
2023/02/22 07:04:19;;;;;;;75.13;28.70;;;6.90;99.90;;;;;;5075489;28;20132;-81
2023/02/22 07:06:45;;;;;;;62.50;30.20;;;6.90;99.90;;;;;;5082972;28;20055;-81
2023/02/22 07:09:12;;;;;;;71.60;30.80;;;6.90;99.90;;;;;;5066401;28;20052;-81
2023/02/22 07:11:38;;;;;;;67.00;28.53;;;6.90;99.90;;;;;;5092190;28;20465;-81
2023/02/22 07:14:04;;;;;;;64.27;26.83;;;6.90;99.90;;;;;;5093835;28;20361;-82
2023/02/22 07:16:30;;;;;;;66.70;25.63;;;6.90;99.90;;;;;;5093656;28;20077;-81
2023/02/22 07:18:55;;;;;;;60.37;26.83;;;6.90;99.90;;;;;;5093673;28;20028;-81
2023/02/22 07:21:21;;;;;;;52.87;25.00;;;7.00;99.90;;;;;;5093255;28;20476;-81
2023/02/22 07:23:54;;;;;;;61.33;27.93;;;7.00;99.90;;;;;;5092868;28;21053;-81
2023/02/22 07:26:21;;;;;;;58.95;24.83;;;7.00;99.90;;;;;;5094015;28;20434;-81
2023/02/22 07:28:47;;;;;;;69.57;29.50;;;7.00;99.90;;;;;;5092773;28;20036;-81
2023/02/22 07:31:15;;;;;;;60.60;26.57;;;7.00;99.90;;;;;;5092851;28;20066;-81
2023/02/22 07:33:41;;;;;;;61.40;27.70;;;7.00;99.90;;;;;;5086979;28;20036;-81
2023/02/22 07:36:08;;;;;;;54.70;25.93;;;7.00;99.90;;;;;;5089472;28;20063;-81
2023/02/22 07:38:33;;;;;;;60.53;24.77;;;7.00;99.90;;;;;;5090289;28;20032;-81
2023/02/22 07:41:00;;;;;;;58.93;25.90;;;7.10;99.90;;;;;;5094542;28;20063;-80
2023/02/22 07:43:27;;;;;;;64.80;27.37;;;7.10;99.90;;;;;;5094134;28;20024;-81
2023/02/22 07:45:55;;;;;;;63.93;27.57;;;7.10;99.90;;;;;;5092874;28;20056;-81
2023/02/22 07:48:23;;;;;;;63.33;28.07;;;7.10;99.90;;;;;;5092193;28;20032;-82
2023/02/22 07:50:49;;;;;;;63.27;26.30;;;7.10;99.90;;;;;;5092813;28;20569;-81
2023/02/22 07:53:22;;;;;;;57.00;25.83;;;7.20;99.90;;;;;;5092856;28;20468;-81
2023/02/22 07:55:51;;;;;;;60.33;26.43;;;7.20;99.90;;;;;;5092640;28;20024;-81
2023/02/22 07:58:22;;;;;;;63.20;27.10;;;7.30;99.90;;;;;;5094142;28;20028;-81
2023/02/22 08:00:47;;;;;;;66.53;28.20;;;7.30;99.90;;;;;;5075673;28;20034;-81
2023/02/22 08:03:16;;;;;;;64.33;27.60;;;7.30;99.90;;;;;;5093069;28;20451;-81
2023/02/22 08:05:45;;;;;;;74.87;30.97;;;7.30;99.90;;;;;;5092298;28;20463;-81
2023/02/22 08:08:13;;;;;;;66.63;27.77;;;7.40;99.90;;;;;;5093045;28;20035;-81
2023/02/22 08:10:39;;;;;;;68.33;28.70;;;7.40;99.90;;;;;;5092218;28;20103;-81
2023/02/22 08:13:05;;;;;;;62.30;27.27;;;7.40;99.90;;;;;;5075259;28;20055;-80
2023/02/22 08:15:34;;;;;;;64.63;28.67;;;7.50;99.90;;;;;;5093447;28;20081;-80
2023/02/22 08:18:00;;;;;;;65.83;26.90;;;7.50;99.90;;;;;;5093445;28;20111;-80
2023/02/22 08:20:27;;;;;;;73.20;28.80;;;7.50;99.90;;;;;;5109577;28;20024;-81
2023/02/22 08:22:53;;;;;;;71.93;30.63;;;7.60;99.90;;;;;;5075694;28;20024;-80
2023/02/22 08:25:21;;;;;;;69.63;30.03;;;7.60;99.90;;;;;;5079759;28;20047;-80
2023/02/22 08:27:47;;;;;;;61.73;28.37;;;7.60;99.90;;;;;;5080536;28;20073;-80
2023/02/22 08:30:18;;;;;;;66.80;28.53;;;7.70;99.90;;;;;;5082765;28;20047;-80
2023/02/22 08:32:45;;;;;;;60.83;26.67;;;7.70;99.90;;;;;;5082222;28;20457;-80
2023/02/22 08:35:12;;;;;;;61.43;27.20;;;7.70;99.90;;;;;;5079771;28;20091;-80
2023/02/22 08:37:42;;;;;;;65.93;28.50;;;7.80;99.90;;;;;;5098755;28;20069;-80
2023/02/22 08:40:08;;;;;;;57.87;26.30;;;7.80;99.90;;;;;;5081589;28;21102;-80
2023/02/22 08:42:34;;;;;;;58.17;25.30;;;7.80;99.90;;;;;;5109203;28;20039;-81
2023/02/22 08:44:59;;;;;;;58.20;25.20;;;7.90;99.90;;;;;;5091500;28;20032;-80
2023/02/22 08:47:25;;;;;;;65.10;28.57;;;8.00;99.90;;;;;;5092334;28;20415;-80
2023/02/22 08:49:51;;;;;;;69.90;26.90;;;7.90;99.90;;;;;;5069580;28;20062;-80
2023/02/22 08:52:16;;;;;;;64.17;26.47;;;7.90;99.90;;;;;;5082784;28;20491;-81
2023/02/22 08:54:44;;;;;;;69.67;26.87;;;7.90;99.90;;;;;;5077388;28;20016;-80
2023/02/22 08:57:10;;;;;;;64.73;27.63;;;7.90;99.90;;;;;;5081214;28;20501;-80
2023/02/22 08:59:35;;;;;;;62.77;27.27;;;7.90;99.90;;;;;;5082015;28;20092;-80
2023/02/22 09:02:01;;;;;;;64.03;28.00;;;8.00;99.90;;;;;;5063248;28;20350;-81
2023/02/22 09:04:27;;;;;;;67.70;27.83;;;8.00;99.90;;;;;;5081379;28;20488;-80
2023/02/22 09:06:52;;;;;;;62.07;27.07;;;8.00;99.90;;;;;;5081358;28;20055;-80
2023/02/22 09:09:20;;;;;;;61.23;27.60;;;8.10;99.90;;;;;;5079883;28;21137;-80
2023/02/22 09:11:47;;;;;;;67.40;29.27;;;8.10;99.90;;;;;;5054326;28;20039;-81
2023/02/22 09:14:13;;;;;;;66.73;29.97;;;8.10;99.90;;;;;;5067969;28;20508;-80
2023/02/22 09:16:39;;;;;;;59.73;28.63;;;8.10;99.90;;;;;;5071377;28;20059;-81
2023/02/22 09:19:05;;;;;;;64.67;28.63;;;8.20;99.90;;;;;;5071043;28;20544;-80
2023/02/22 09:21:30;;;;;;;56.27;25.73;;;8.20;99.90;;;;;;5071613;28;20025;-80
2023/02/22 09:23:57;;;;;;;56.07;25.63;;;8.30;99.90;;;;;;5074111;28;20468;-81
2023/02/22 09:26:23;;;;;;;54.10;25.03;;;8.40;99.90;;;;;;5083376;28;20052;-80
2023/02/22 09:28:49;;;;;;;58.37;25.47;;;8.50;99.90;;;;;;5079751;28;20091;-80
2023/02/22 09:31:15;;;;;;;53.67;25.27;;;8.60;99.90;;;;;;5065655;28;20036;-80
2023/02/22 09:33:41;;;;;;;54.90;26.67;;;8.70;99.90;;;;;;5054527;28;20146;-81
2023/02/22 09:36:07;;;;;;;51.07;23.97;;;8.80;99.90;;;;;;5060383;28;20047;-80
2023/02/22 09:38:32;;;;;;;51.03;24.13;;;9.00;99.90;;;;;;5063100;28;20029;-81
2023/02/22 09:41:21;;;;;;;53.37;25.40;;;9.10;99.90;;;;;;5055452;28;20389;-81
2023/02/22 09:44:14;;;;;;;54.23;24.33;;;9.20;99.90;;;;;;5055537;28;20120;-80
2023/02/22 09:46:44;;;;;;;55.83;26.27;;;9.30;99.90;;;;;;5062161;28;20082;-81
2023/02/22 09:49:38;;;;;;;50.30;24.53;;;9.40;99.90;;;;;;5070994;28;20029;-81
2023/02/22 09:52:17;;;;;;;50.27;25.10;;;9.60;99.90;;;;;;5060103;28;20476;-80
2023/02/22 09:54:50;;;;;;;48.17;24.13;;;9.70;99.90;;;;;;5073944;28;20055;-80
2023/02/22 09:57:24;;;;;;;43.93;22.80;;;9.80;99.90;;;;;;5074142;28;20380;-80
2023/02/22 10:00:19;;;;;;;43.93;22.73;;;9.90;99.90;;;;;;5079250;28;20024;-80
2023/02/22 10:02:54;;;;;;;;;;;9.90;99.90;;;;;;5080809;28;20020;-80
2023/02/22 10:05:36;;;;;;;40.83;21.85;;;10.00;99.90;;;;;;5098772;28;19908;-80
2023/02/22 10:08:14;;;;;;;45.53;21.77;;;10.10;99.90;;;;;;5083807;28;20426;-81
2023/02/22 10:10:45;;;;;;;44.95;21.60;;;10.20;99.90;;;;;;5101679;28;20048;-81
2023/02/22 10:13:22;;;;;;;42.43;22.87;;;10.30;99.90;;;;;;5082639;28;20021;-80
2023/02/22 10:15:57;;;;;;;42.83;20.73;;;10.40;99.90;;;;;;5081750;28;20354;-81
2023/02/22 10:18:47;;;;;;;37.42;20.88;;;10.50;99.90;;;;;;5083436;28;20111;-81
2023/02/22 10:21:32;;;;;;;40.20;21.23;;;10.70;99.90;;;;;;5074672;28;20024;-81
2023/02/22 10:24:06;;;;;;;;;;;10.90;99.90;;;;;;5059436;28;20025;-79
2023/02/22 10:26:36;;;;;;;35.67;19.10;;;11.10;99.90;;;;;;5079557;28;19904;-80
2023/02/22 10:29:17;;;;;;;38.42;19.65;;;11.40;99.90;;;;;;5081929;28;20398;-81
2023/02/22 10:31:53;;;;;;;35.15;19.23;;;11.70;99.90;;;;;;5092429;28;20082;-80
2023/02/22 10:34:24;;;;;;;35.55;17.92;;;11.90;99.90;;;;;;5094125;28;20564;-80
2023/02/22 10:36:56;;;;;;;33.67;18.17;;;12.20;99.90;;;;;;5090513;28;20032;-80
2023/02/22 10:39:30;;;;;;;35.45;19.73;;;12.50;99.90;;;;;;5080171;28;20078;-81
2023/02/22 10:42:04;;;;;;;31.80;18.65;;;12.70;99.90;;;;;;5084482;28;20069;-81
2023/02/22 10:44:32;;;;;;;30.65;18.55;;;13.00;99.90;;;;;;5080198;28;20138;-80
2023/02/22 10:47:00;;;;;;;31.40;17.35;;;13.30;99.90;;;;;;5083999;28;20029;-81
2023/02/22 10:49:33;;;;;;;33.58;17.80;;;13.60;99.90;;;;;;5082081;28;20044;-80
2023/02/22 10:52:01;;;;;;;31.17;19.08;;;13.80;99.90;;;;;;5082584;28;20031;-80
2023/02/22 10:54:39;;;;;;;29.90;17.45;;;14.10;99.90;;;;;;5075032;28;20165;-80
2023/02/22 10:57:05;;;;;;;29.88;17.98;;;14.30;99.90;;;;;;5110084;28;20031;-81
2023/02/22 10:59:39;;;;;;;30.90;18.55;;;14.60;99.90;;;;;;5073503;28;20384;-80
2023/02/22 11:02:29;;;;;;;34.22;20.05;;;14.80;99.90;;;;;;5079207;28;20024;-81
2023/02/22 11:04:58;;;;;;;30.73;19.25;;;15.00;99.90;;;;;;5082411;28;20035;-81
2023/02/22 11:07:33;;;;;;;29.25;18.17;;;15.10;99.90;;;;;;5096012;28;20058;-80
2023/02/22 11:10:06;;;;;;;29.48;18.77;;;15.30;99.90;;;;;;5081830;28;20028;-80
2023/02/22 11:12:38;;;;;;;30.55;18.27;;;15.60;99.90;;;;;;5078889;28;20369;-80
2023/02/22 11:15:15;;;;;;;30.20;19.52;;;15.80;99.30;;;;;;5085573;28;20024;-81
2023/02/22 11:17:42;;;;;;;28.52;17.75;;;16.20;97.10;;;;;;5083993;28;20029;-81
2023/02/22 11:20:24;;;;;;;28.83;18.58;;;16.40;95.80;;;;;;5058829;28;20029;-81
2023/02/22 11:22:55;;;;;;;28.73;17.40;;;16.50;94.30;;;;;;5069507;28;20021;-80
2023/02/22 11:25:26;;;;;;;28.02;17.90;;;16.70;93.10;;;;;;5054178;28;20028;-80
2023/02/22 11:27:53;;;;;;;28.75;17.65;;;16.80;90.90;;;;;;5069621;28;20048;-80
2023/02/22 11:30:23;;;;;;;32.78;20.63;;;16.80;87.10;;;;;;5079481;28;20032;-80
2023/02/22 11:32:59;;;;;;;31.38;18.95;;;16.80;84.40;;;;;;5081081;28;20059;-80
2023/02/22 11:35:27;;;;;;;33.33;19.25;;;16.70;82.70;;;;;;5081522;28;20052;-81
2023/02/22 11:38:09;;;;;;;30.15;18.38;;;16.70;80.90;;;;;;5079103;28;20017;-80
2023/02/22 11:40:35;;;;;;;30.60;20.55;;;16.60;79.50;;;;;;5082349;28;20073;-80
2023/02/22 11:43:18;;;;;;;34.03;20.58;;;16.40;78.10;;;;;;5094299;28;20029;-79
2023/02/22 11:46:01;;;;;;;30.90;18.63;;;16.10;78.00;;;;;;5094034;28;20085;-80
2023/02/22 11:48:29;;;;;;;33.28;18.80;;;15.90;78.50;;;;;;5093866;28;20043;-80
2023/02/22 11:51:14;;;;;;;30.90;18.58;;;15.70;78.50;;;;;;5075171;28;20116;-80
2023/02/22 11:54:08;;;;;;;33.58;19.88;;;15.50;78.30;;;;;;5089176;28;20025;-80
2023/02/22 11:56:44;;;;;;;33.17;19.42;;;15.30;78.30;;;;;;5059571;28;20173;-80
2023/02/22 11:59:16;;;;;;;33.25;17.98;;;15.20;79.00;;;;;;5078324;28;20028;-81
2023/02/22 12:01:59;;;;;;;31.30;18.92;;;15.10;78.80;;;;;;5086680;28;20119;-81
2023/02/22 12:04:35;;;;;;;32.88;19.67;;;15.00;79.40;;;;;;5093572;28;20036;-81
2023/02/22 12:07:41;;;;;;;35.00;20.63;;;14.90;79.50;;;;;;5093409;28;20072;-80
2023/02/22 12:10:20;;;;;;;28.38;17.75;;;14.90;79.90;;;;;;5071731;28;20467;-80
2023/02/22 12:13:03;;;;;;;29.52;18.65;;;15.00;80.10;;;;;;5092379;28;20026;-80
2023/02/22 12:15:43;;;;;;;29.52;18.00;;;15.10;80.80;;;;;;5091235;28;20028;-81
2023/02/22 12:18:31;;;;;;;30.02;18.42;;;15.30;81.70;;;;;;5093443;28;20563;-81
2023/02/22 12:21:00;;;;;;;29.48;18.35;;;15.60;81.90;;;;;;5080329;28;20480;-81
2023/02/22 12:23:50;;;;;;;25.23;15.68;;;15.70;81.60;;;;;;5080948;28;20096;-82
2023/02/22 12:26:38;;;;;;;29.38;17.48;;;16.00;80.90;;;;;;5079779;28;20552;-79
2023/02/22 12:29:26;;;;;;;27.35;16.08;;;16.10;80.40;;;;;;5076526;28;20548;-81
2023/02/22 12:32:00;;;;;;;28.73;18.38;;;16.20;80.00;;;;;;5072035;28;20031;-82
2023/02/22 12:34:40;;;;;;;27.52;16.60;;;16.20;79.30;;;;;;5071786;28;20021;-81
2023/02/22 12:37:47;;;;;;;28.83;17.70;;;16.10;78.90;;;;;;5070951;28;20029;-81
2023/02/22 12:40:43;;;;;;;26.92;15.90;;;16.00;78.20;;;;;;5030786;28;20068;-81
2023/02/22 12:43:27;;;;;;;26.67;16.58;;;15.90;77.50;;;;;;5063237;28;20202;-80
2023/02/22 12:45:56;;;;;;;22.77;12.88;;;15.80;76.60;;;;;;5081284;28;20024;-80
2023/02/22 12:48:43;;;;;;;26.33;17.55;;;15.70;76.10;;;;;;5093135;28;20432;-80
2023/02/22 12:51:38;;;;;;;29.00;17.02;;;15.70;76.20;;;;;;5092027;28;20024;-80
2023/02/22 12:54:10;;;;;;;;;;;15.60;76.70;;;;;;5091552;28;20020;-81